sensor_id;sensor_type;location;lat;lon;timestamp;temperature;humidity
21508;DHT22;10915;54.352;9.074;2024-01-10T07:31:51;-1.80;99.90
21508;DHT22;10915;54.352;9.074;2024-01-10T07:34:18;-1.70;99.90
21508;DHT22;10915;54.352;9.074;2024-01-10T07:36:43;-1.70;99.90
21508;DHT22;10915;54.352;9.074;2024-01-10T07:39:09;-1.70;99.90
21508;DHT22;10915;54.352;9.074;2024-01-10T07:41:35;-1.70;99.90
21508;DHT22;10915;54.352;9.074;2024-01-10T07:44:01;-1.70;99.90
21508;DHT22;10915;54.352;9.074;2024-01-10T07:48:54;-1.70;99.90
21508;DHT22;10915;54.352;9.074;2024-01-10T07:51:20;-1.70;99.90
21508;DHT22;10915;54.352;9.074;2024-01-10T07:53:45;-1.80;99.90
21508;DHT22;10915;54.352;9.074;2024-01-10T07:56:11;-1.70;99.90
21508;DHT22;10915;54.352;9.074;2024-01-10T07:58:38;-1.70;99.90
21508;DHT22;10915;54.352;9.074;2024-01-10T08:01:04;-1.70;99.90
21508;DHT22;10915;54.352;9.074;2024-01-10T08:03:29;-1.70;99.90
21508;DHT22;10915;54.352;9.074;2024-01-10T08:05:56;-1.70;99.90
21508;DHT22;10915;54.352;9.074;2024-01-10T08:08:22;-1.60;99.90
21508;DHT22;10915;54.352;9.074;2024-01-10T08:10:48;-1.60;99.90
21508;DHT22;10915;54.352;9.074;2024-01-10T08:13:13;-1.50;99.90
21508;DHT22;10915;54.352;9.074;2024-01-10T08:15:39;-1.60;99.90
21508;DHT22;10915;54.352;9.074;2024-01-10T08:18:04;-1.60;99.90
21508;DHT22;10915;54.352;9.074;2024-01-10T08:20:30;-1.50;99.90
21508;DHT22;10915;54.352;9.074;2024-01-10T08:22:56;-1.50;99.90
21508;DHT22;10915;54.352;9.074;2024-01-10T08:25:22;-1.50;99.90
21508;DHT22;10915;54.352;9.074;2024-01-10T08:27:48;-1.60;99.90
21508;DHT22;10915;54.352;9.074;2024-01-10T08:30:15;-1.60;99.90
21508;DHT22;10915;54.352;9.074;2024-01-10T08:32:41;-1.40;99.90
21508;DHT22;10915;54.352;9.074;2024-01-10T08:35:07;-1.30;99.90
21508;DHT22;10915;54.352;9.074;2024-01-10T08:37:34;-1.30;99.90
21508;DHT22;10915;54.352;9.074;2024-01-10T08:40:00;-1.30;99.90
21508;DHT22;10915;54.352;9.074;2024-01-10T08:42:31;-1.20;99.90
21508;DHT22;10915;54.352;9.074;2024-01-10T08:44:57;-1.20;99.90
21508;DHT22;10915;54.352;9.074;2024-01-10T08:47:23;-1.10;99.90
21508;DHT22;10915;54.352;9.074;2024-01-10T08:49:49;-1.00;99.90
21508;DHT22;10915;54.352;9.074;2024-01-10T08:52:16;-0.90;99.90
21508;DHT22;10915;54.352;9.074;2024-01-10T08:54:41;-1.20;99.90
21508;DHT22;10915;54.352;9.074;2024-01-10T08:57:08;-1.10;99.90
21508;DHT22;10915;54.352;9.074;2024-01-10T08:59:33;-1.00;99.90
21508;DHT22;10915;54.352;9.074;2024-01-10T09:01:59;-1.00;99.90
21508;DHT22;10915;54.352;9.074;2024-01-10T09:04:25;-0.90;99.90
21508;DHT22;10915;54.352;9.074;2024-01-10T09:06:51;-0.70;99.90
21508;DHT22;10915;54.352;9.074;2024-01-10T09:09:17;-0.90;99.90
21508;DHT22;10915;54.352;9.074;2024-01-10T09:11:46;-1.00;99.90
21508;DHT22;10915;54.352;9.074;2024-01-10T09:14:13;-1.00;99.90
21508;DHT22;10915;54.352;9.074;2024-01-10T09:16:39;-0.90;99.90
21508;DHT22;10915;54.352;9.074;2024-01-10T09:19:04;-0.70;99.90
21508;DHT22;10915;54.352;9.074;2024-01-10T09:21:30;-0.70;99.90
21508;DHT22;10915;54.352;9.074;2024-01-10T09:23:55;-0.60;99.90
21508;DHT22;10915;54.352;9.074;2024-01-10T09:26:22;-0.50;99.90
21508;DHT22;10915;54.352;9.074;2024-01-10T09:28:48;-0.40;99.90
21508;DHT22;10915;54.352;9.074;2024-01-10T09:31:13;-0.30;99.90
21508;DHT22;10915;54.352;9.074;2024-01-10T09:33:39;-0.40;99.90
21508;DHT22;10915;54.352;9.074;2024-01-10T09:36:05;-0.40;99.90
21508;DHT22;10915;54.352;9.074;2024-01-10T09:38:37;-0.40;99.90
21508;DHT22;10915;54.352;9.074;2024-01-10T09:41:11;-0.40;99.90
21508;DHT22;10915;54.352;9.074;2024-01-10T09:43:40;-0.20;99.90
21508;DHT22;10915;54.352;9.074;2024-01-10T09:46:07;-0.30;99.90
21508;DHT22;10915;54.352;9.074;2024-01-10T09:48:33;-0.30;99.90
21508;DHT22;10915;54.352;9.074;2024-01-10T09:50:59;-0.20;99.90
21508;DHT22;10915;54.352;9.074;2024-01-10T09:53:28;-0.30;99.90
21508;DHT22;10915;54.352;9.074;2024-01-10T09:55:56;-0.60;99.90
21508;DHT22;10915;54.352;9.074;2024-01-10T09:58:26;-0.70;99.90
21508;DHT22;10915;54.352;9.074;2024-01-10T10:00:52;-0.80;99.90
21508;DHT22;10915;54.352;9.074;2024-01-10T10:03:19;-1.00;99.90
21508;DHT22;10915;54.352;9.074;2024-01-10T10:05:45;-1.00;99.90
21508;DHT22;10915;54.352;9.074;2024-01-10T10:08:12;-1.00;99.90
21508;DHT22;10915;54.352;9.074;2024-01-10T10:10:41;-1.00;99.90
21508;DHT22;10915;54.352;9.074;2024-01-10T10:13:10;-0.90;99.90
21508;DHT22;10915;54.352;9.074;2024-01-10T10:15:40;-0.80;99.90
21508;DHT22;10915;54.352;9.074;2024-01-10T10:18:06;-0.80;99.90
21508;DHT22;10915;54.352;9.074;2024-01-10T10:20:32;-0.70;99.90
21508;DHT22;10915;54.352;9.074;2024-01-10T10:23:10;-0.60;99.90
21508;DHT22;10915;54.352;9.074;2024-01-10T10:25:43;-0.60;99.90
21508;DHT22;10915;54.352;9.074;2024-01-10T10:28:09;-0.70;99.90
21508;DHT22;10915;54.352;9.074;2024-01-10T10:30:35;-0.70;99.90
21508;DHT22;10915;54.352;9.074;2024-01-10T10:33:07;-0.70;99.90
21508;DHT22;10915;54.352;9.074;2024-01-10T10:35:38;-0.80;99.90
21508;DHT22;10915;54.352;9.074;2024-01-10T10:38:04;-0.70;99.90
21508;DHT22;10915;54.352;9.074;2024-01-10T10:40:29;-0.80;99.90
21508;DHT22;10915;54.352;9.074;2024-01-10T10:42:56;-0.70;99.90
21508;DHT22;10915;54.352;9.074;2024-01-10T10:45:22;-0.70;99.90
21508;DHT22;10915;54.352;9.074;2024-01-10T10:47:59;-0.70;99.90
21508;DHT22;10915;54.352;9.074;2024-01-10T10:53:27;-0.60;99.90
21508;DHT22;10915;54.352;9.074;2024-01-10T10:55:57;-0.50;99.90
21508;DHT22;10915;54.352;9.074;2024-01-10T10:58:23;-0.60;99.90
21508;DHT22;10915;54.352;9.074;2024-01-10T11:00:50;-0.40;99.90
21508;DHT22;10915;54.352;9.074;2024-01-10T11:03:16;-0.30;99.90
21508;DHT22;10915;54.352;9.074;2024-01-10T11:05:43;-0.10;99.90
21508;DHT22;10915;54.352;9.074;2024-01-10T11:08:12;0.10;99.90
21508;DHT22;10915;54.352;9.074;2024-01-10T11:10:40;0.20;99.90
21508;DHT22;10915;54.352;9.074;2024-01-10T11:16:20;0.50;99.90
21508;DHT22;10915;54.352;9.074;2024-01-10T11:24:30;1.00;99.90
21508;DHT22;10915;54.352;9.074;2024-01-10T11:27:13;1.00;99.90
21508;DHT22;10915;54.352;9.074;2024-01-10T11:29:40;1.00;99.90
21508;DHT22;10915;54.352;9.074;2024-01-10T11:32:16;1.20;99.90
21508;DHT22;10915;54.352;9.074;2024-01-10T11:35:03;1.30;99.90
21508;DHT22;10915;54.352;9.074;2024-01-10T11:37:42;1.20;99.90
21508;DHT22;10915;54.352;9.074;2024-01-10T11:40:09;1.10;99.90
21508;DHT22;10915;54.352;9.074;2024-01-10T11:42:45;0.90;99.90
21508;DHT22;10915;54.352;9.074;2024-01-10T11:47:56;0.60;99.90
21508;DHT22;10915;54.352;9.074;2024-01-10T11:50:23;0.70;99.90
21508;DHT22;10915;54.352;9.074;2024-01-10T11:52:53;0.70;99.90
21508;DHT22;10915;54.352;9.074;2024-01-10T11:55:47;0.80;99.90
21508;DHT22;10915;54.352;9.074;2024-01-10T11:58:13;0.60;99.90
21508;DHT22;10915;54.352;9.074;2024-01-10T12:00:40;0.70;99.90
21508;DHT22;10915;54.352;9.074;2024-01-10T12:03:11;0.70;99.90
21508;DHT22;10915;54.352;9.074;2024-01-10T12:05:36;0.50;99.90
21508;DHT22;10915;54.352;9.074;2024-01-10T12:08:07;0.60;99.90
21508;DHT22;10915;54.352;9.074;2024-01-10T12:10:33;0.70;99.90
21508;DHT22;10915;54.352;9.074;2024-01-10T12:13:03;0.80;99.90
21508;DHT22;10915;54.352;9.074;2024-01-10T12:15:29;0.90;99.90
21508;DHT22;10915;54.352;9.074;2024-01-10T12:17:55;0.80;99.90
21508;DHT22;10915;54.352;9.074;2024-01-10T12:20:21;0.80;99.90
21508;DHT22;10915;54.352;9.074;2024-01-10T12:22:47;0.70;99.90
21508;DHT22;10915;54.352;9.074;2024-01-10T12:25:13;0.70;99.90
21508;DHT22;10915;54.352;9.074;2024-01-10T12:27:39;0.50;99.90
21508;DHT22;10915;54.352;9.074;2024-01-10T12:30:05;0.50;99.90
21508;DHT22;10915;54.352;9.074;2024-01-10T12:32:31;0.60;99.90
21508;DHT22;10915;54.352;9.074;2024-01-10T12:35:04;0.60;99.90
21508;DHT22;10915;54.352;9.074;2024-01-10T12:37:30;0.70;99.90
21508;DHT22;10915;54.352;9.074;2024-01-10T12:39:56;0.70;99.90
21508;DHT22;10915;54.352;9.074;2024-01-10T12:42:23;0.80;99.90
21508;DHT22;10915;54.352;9.074;2024-01-10T12:44:49;0.80;99.90
21508;DHT22;10915;54.352;9.074;2024-01-10T12:47:21;0.80;99.90
21508;DHT22;10915;54.352;9.074;2024-01-10T12:49:48;0.90;99.90
21508;DHT22;10915;54.352;9.074;2024-01-10T12:52:13;0.90;99.90
21508;DHT22;10915;54.352;9.074;2024-01-10T12:54:40;1.00;99.90
21508;DHT22;10915;54.352;9.074;2024-01-10T12:57:06;0.90;99.90
21508;DHT22;10915;54.352;9.074;2024-01-10T12:59:35;0.90;99.90
21508;DHT22;10915;54.352;9.074;2024-01-10T13:02:00;1.00;99.90
21508;DHT22;10915;54.352;9.074;2024-01-10T13:04:26;1.00;99.90
21508;DHT22;10915;54.352;9.074;2024-01-10T13:06:52;0.80;99.90
21508;DHT22;10915;54.352;9.074;2024-01-10T13:09:17;0.80;99.90
21508;DHT22;10915;54.352;9.074;2024-01-10T13:11:43;0.90;99.90
21508;DHT22;10915;54.352;9.074;2024-01-10T13:14:11;1.00;99.90
21508;DHT22;10915;54.352;9.074;2024-01-10T13:16:37;1.00;99.90
21508;DHT22;10915;54.352;9.074;2024-01-10T13:19:03;1.10;99.90
21508;DHT22;10915;54.352;9.074;2024-01-10T13:21:29;1.10;99.90
21508;DHT22;10915;54.352;9.074;2024-01-10T13:23:55;1.20;99.90
21508;DHT22;10915;54.352;9.074;2024-01-10T13:26:20;1.30;99.90
21508;DHT22;10915;54.352;9.074;2024-01-10T13:28:46;1.30;99.90
21508;DHT22;10915;54.352;9.074;2024-01-10T13:31:11;1.30;99.90
21508;DHT22;10915;54.352;9.074;2024-01-10T13:33:37;1.30;99.90
21508;DHT22;10915;54.352;9.074;2024-01-10T13:36:04;1.40;99.90
21508;DHT22;10915;54.352;9.074;2024-01-10T13:38:30;1.30;99.90
21508;DHT22;10915;54.352;9.074;2024-01-10T13:40:56;1.30;99.90
21508;DHT22;10915;54.352;9.074;2024-01-10T13:43:22;1.20;99.90
21508;DHT22;10915;54.352;9.074;2024-01-10T13:45:47;1.20;99.90
21508;DHT22;10915;54.352;9.074;2024-01-10T13:48:13;1.30;99.90
21508;DHT22;10915;54.352;9.074;2024-01-10T13:50:39;1.30;99.90
21508;DHT22;10915;54.352;9.074;2024-01-10T13:53:04;1.40;99.90
21508;DHT22;10915;54.352;9.074;2024-01-10T13:55:31;1.40;99.90
21508;DHT22;10915;54.352;9.074;2024-01-10T13:57:56;1.40;99.90
21508;DHT22;10915;54.352;9.074;2024-01-10T14:00:22;1.50;99.90
21508;DHT22;10915;54.352;9.074;2024-01-10T14:02:48;1.50;99.90
21508;DHT22;10915;54.352;9.074;2024-01-10T14:05:14;1.40;99.90
21508;DHT22;10915;54.352;9.074;2024-01-10T14:07:40;1.30;99.90
21508;DHT22;10915;54.352;9.074;2024-01-10T14:10:10;1.20;99.90
21508;DHT22;10915;54.352;9.074;2024-01-10T14:12:36;1.10;99.90
21508;DHT22;10915;54.352;9.074;2024-01-10T14:15:02;1.10;99.90
21508;DHT22;10915;54.352;9.074;2024-01-10T14:17:27;1.00;99.90
21508;DHT22;10915;54.352;9.074;2024-01-10T14:19:53;0.90;99.90
21508;DHT22;10915;54.352;9.074;2024-01-10T14:22:19;0.90;99.90
21508;DHT22;10915;54.352;9.074;2024-01-10T14:24:45;0.80;99.90
21508;DHT22;10915;54.352;9.074;2024-01-10T14:27:10;0.90;99.90
21508;DHT22;10915;54.352;9.074;2024-01-10T14:29:36;0.90;99.90
21508;DHT22;10915;54.352;9.074;2024-01-10T14:32:02;0.90;99.90
21508;DHT22;10915;54.352;9.074;2024-01-10T14:34:29;0.90;99.90
21508;DHT22;10915;54.352;9.074;2024-01-10T14:36:54;0.90;99.90
21508;DHT22;10915;54.352;9.074;2024-01-10T14:39:20;0.80;99.90
21508;DHT22;10915;54.352;9.074;2024-01-10T14:41:46;0.90;99.90
21508;DHT22;10915;54.352;9.074;2024-01-10T14:44:12;0.80;99.90
21508;DHT22;10915;54.352;9.074;2024-01-10T14:46:37;0.90;99.90
21508;DHT22;10915;54.352;9.074;2024-01-10T14:49:03;0.90;99.90
21508;DHT22;10915;54.352;9.074;2024-01-10T14:51:30;1.00;99.90
21508;DHT22;10915;54.352;9.074;2024-01-10T14:53:56;1.00;99.90
21508;DHT22;10915;54.352;9.074;2024-01-10T14:56:22;0.80;99.90
21508;DHT22;10915;54.352;9.074;2024-01-10T14:58:48;0.70;99.90
21508;DHT22;10915;54.352;9.074;2024-01-10T15:01:16;0.60;99.90
21508;DHT22;10915;54.352;9.074;2024-01-10T15:03:42;0.60;99.90
21508;DHT22;10915;54.352;9.074;2024-01-10T15:06:08;0.70;99.90
21508;DHT22;10915;54.352;9.074;2024-01-10T15:08:33;0.70;99.90
21508;DHT22;10915;54.352;9.074;2024-01-10T15:10:59;0.70;99.90
21508;DHT22;10915;54.352;9.074;2024-01-10T15:13:25;0.70;99.90
21508;DHT22;10915;54.352;9.074;2024-01-10T15:15:51;0.60;99.90
21508;DHT22;10915;54.352;9.074;2024-01-10T15:18:16;0.60;99.90
21508;DHT22;10915;54.352;9.074;2024-01-10T15:20:42;0.60;99.90
21508;DHT22;10915;54.352;9.074;2024-01-10T15:23:08;0.60;99.90
21508;DHT22;10915;54.352;9.074;2024-01-10T15:25:34;0.60;99.90
21508;DHT22;10915;54.352;9.074;2024-01-10T15:28:01;0.60;99.90
21508;DHT22;10915;54.352;9.074;2024-01-10T15:30:27;0.60;99.90
21508;DHT22;10915;54.352;9.074;2024-01-10T15:32:52;0.60;99.90
21508;DHT22;10915;54.352;9.074;2024-01-10T15:35:19;0.70;99.90
21508;DHT22;10915;54.352;9.074;2024-01-10T15:37:44;0.70;99.90
21508;DHT22;10915;54.352;9.074;2024-01-10T15:40:11;0.70;99.90
21508;DHT22;10915;54.352;9.074;2024-01-10T15:42:38;0.60;99.90
21508;DHT22;10915;54.352;9.074;2024-01-10T15:45:04;0.60;99.90
21508;DHT22;10915;54.352;9.074;2024-01-10T15:47:31;0.50;99.90
21508;DHT22;10915;54.352;9.074;2024-01-10T15:49:57;0.60;99.90
21508;DHT22;10915;54.352;9.074;2024-01-10T15:52:22;0.60;99.90
21508;DHT22;10915;54.352;9.074;2024-01-10T15:54:55;0.60;99.90
21508;DHT22;10915;54.352;9.074;2024-01-10T15:57:24;0.70;99.90
21508;DHT22;10915;54.352;9.074;2024-01-10T15:59:50;0.70;99.90
21508;DHT22;10915;54.352;9.074;2024-01-10T16:02:17;0.70;99.90
21508;DHT22;10915;54.352;9.074;2024-01-10T16:04:42;0.70;99.90
21508;DHT22;10915;54.352;9.074;2024-01-10T16:07:08;0.70;99.90
21508;DHT22;10915;54.352;9.074;2024-01-10T16:09:36;0.80;99.90
21508;DHT22;10915;54.352;9.074;2024-01-10T16:12:01;0.90;99.90
21508;DHT22;10915;54.352;9.074;2024-01-10T16:14:27;0.80;99.90
21508;DHT22;10915;54.352;9.074;2024-01-10T16:16:53;0.70;99.90
21508;DHT22;10915;54.352;9.074;2024-01-10T16:19:18;0.70;99.90
21508;DHT22;10915;54.352;9.074;2024-01-10T16:21:44;0.80;99.90
21508;DHT22;10915;54.352;9.074;2024-01-10T16:24:09;0.70;99.90
21508;DHT22;10915;54.352;9.074;2024-01-10T16:26:35;0.80;99.90
21508;DHT22;10915;54.352;9.074;2024-01-10T16:29:02;0.80;99.90
21508;DHT22;10915;54.352;9.074;2024-01-10T16:31:27;0.70;99.90
21508;DHT22;10915;54.352;9.074;2024-01-10T16:33:53;0.70;99.90
21508;DHT22;10915;54.352;9.074;2024-01-10T16:36:18;0.70;99.90
21508;DHT22;10915;54.352;9.074;2024-01-10T16:38:44;0.60;99.90
21508;DHT22;10915;54.352;9.074;2024-01-10T16:41:10;0.60;99.90
21508;DHT22;10915;54.352;9.074;2024-01-10T16:43:36;0.70;99.90
21508;DHT22;10915;54.352;9.074;2024-01-10T16:46:02;0.80;99.90
21508;DHT22;10915;54.352;9.074;2024-01-10T16:48:28;0.90;99.90
21508;DHT22;10915;54.352;9.074;2024-01-10T16:50:54;0.90;99.90
21508;DHT22;10915;54.352;9.074;2024-01-10T16:53:20;0.80;99.90
21508;DHT22;10915;54.352;9.074;2024-01-10T16:55:46;0.70;99.90
21508;DHT22;10915;54.352;9.074;2024-01-10T16:58:12;0.70;99.90
21508;DHT22;10915;54.352;9.074;2024-01-10T17:00:38;0.60;99.90
21508;DHT22;10915;54.352;9.074;2024-01-10T17:03:03;0.70;99.90
21508;DHT22;10915;54.352;9.074;2024-01-10T17:05:29;0.50;99.90
21508;DHT22;10915;54.352;9.074;2024-01-10T17:07:55;0.60;99.90
21508;DHT22;10915;54.352;9.074;2024-01-10T17:10:21;0.60;99.90
21508;DHT22;10915;54.352;9.074;2024-01-10T17:12:46;0.80;99.90
21508;DHT22;10915;54.352;9.074;2024-01-10T17:15:12;0.90;99.90
21508;DHT22;10915;54.352;9.074;2024-01-10T17:17:38;0.90;99.90
21508;DHT22;10915;54.352;9.074;2024-01-10T17:20:05;0.80;99.90
21508;DHT22;10915;54.352;9.074;2024-01-10T17:22:33;0.70;99.90
21508;DHT22;10915;54.352;9.074;2024-01-10T17:24:59;0.70;99.90
21508;DHT22;10915;54.352;9.074;2024-01-10T17:27:24;0.70;99.90
21508;DHT22;10915;54.352;9.074;2024-01-10T17:29:50;0.80;99.90
21508;DHT22;10915;54.352;9.074;2024-01-10T17:32:16;0.90;99.90
21508;DHT22;10915;54.352;9.074;2024-01-10T17:34:41;1.00;99.90
21508;DHT22;10915;54.352;9.074;2024-01-10T17:37:07;1.10;99.90
21508;DHT22;10915;54.352;9.074;2024-01-10T17:39:32;1.20;99.90
21508;DHT22;10915;54.352;9.074;2024-01-10T17:41:58;1.20;99.90
21508;DHT22;10915;54.352;9.074;2024-01-10T17:44:24;1.10;99.90
21508;DHT22;10915;54.352;9.074;2024-01-10T17:46:50;1.20;99.90
21508;DHT22;10915;54.352;9.074;2024-01-10T17:49:15;1.20;99.90
21508;DHT22;10915;54.352;9.074;2024-01-10T17:51:42;1.30;99.90
21508;DHT22;10915;54.352;9.074;2024-01-10T17:54:07;1.30;99.90
21508;DHT22;10915;54.352;9.074;2024-01-10T17:56:33;1.30;99.90
21508;DHT22;10915;54.352;9.074;2024-01-10T17:59:00;1.40;99.90
21508;DHT22;10915;54.352;9.074;2024-01-10T18:01:26;1.40;99.90
21508;DHT22;10915;54.352;9.074;2024-01-10T18:03:52;1.40;99.90
21508;DHT22;10915;54.352;9.074;2024-01-10T18:06:17;1.40;99.90
21508;DHT22;10915;54.352;9.074;2024-01-10T18:08:43;1.40;99.90
21508;DHT22;10915;54.352;9.074;2024-01-10T18:11:08;1.40;99.90
21508;DHT22;10915;54.352;9.074;2024-01-10T18:13:35;1.40;99.90
21508;DHT22;10915;54.352;9.074;2024-01-10T18:16:00;1.30;99.90
21508;DHT22;10915;54.352;9.074;2024-01-10T18:18:29;1.20;99.90
21508;DHT22;10915;54.352;9.074;2024-01-10T18:21:01;1.20;99.90
21508;DHT22;10915;54.352;9.074;2024-01-10T18:23:27;1.20;99.90
21508;DHT22;10915;54.352;9.074;2024-01-10T18:25:53;1.20;99.90
21508;DHT22;10915;54.352;9.074;2024-01-10T18:28:19;1.20;99.90
21508;DHT22;10915;54.352;9.074;2024-01-10T18:30:45;1.20;99.90
21508;DHT22;10915;54.352;9.074;2024-01-10T18:33:10;1.30;99.90
21508;DHT22;10915;54.352;9.074;2024-01-10T18:35:36;1.30;99.90
21508;DHT22;10915;54.352;9.074;2024-01-10T18:38:02;1.20;99.90
21508;DHT22;10915;54.352;9.074;2024-01-10T18:40:29;1.20;99.90
21508;DHT22;10915;54.352;9.074;2024-01-10T18:42:55;1.10;99.90
21508;DHT22;10915;54.352;9.074;2024-01-10T18:45:20;1.00;99.90
21508;DHT22;10915;54.352;9.074;2024-01-10T18:47:46;1.10;99.90
21508;DHT22;10915;54.352;9.074;2024-01-10T18:50:11;1.20;99.90
21508;DHT22;10915;54.352;9.074;2024-01-10T18:52:37;1.10;99.90
21508;DHT22;10915;54.352;9.074;2024-01-10T18:55:03;1.00;99.90
21508;DHT22;10915;54.352;9.074;2024-01-10T18:57:28;1.00;99.90
21508;DHT22;10915;54.352;9.074;2024-01-10T18:59:54;1.10;99.90
21508;DHT22;10915;54.352;9.074;2024-01-10T19:02:22;1.10;99.90
21508;DHT22;10915;54.352;9.074;2024-01-10T19:04:51;1.00;99.90
21508;DHT22;10915;54.352;9.074;2024-01-10T19:07:17;1.00;99.90
21508;DHT22;10915;54.352;9.074;2024-01-10T19:09:45;1.00;99.90
21508;DHT22;10915;54.352;9.074;2024-01-10T19:12:11;1.00;99.90
21508;DHT22;10915;54.352;9.074;2024-01-10T19:14:37;0.90;99.90
21508;DHT22;10915;54.352;9.074;2024-01-10T19:17:03;0.70;99.90
21508;DHT22;10915;54.352;9.074;2024-01-10T19:19:28;0.40;99.90
21508;DHT22;10915;54.352;9.074;2024-01-10T19:21:54;0.40;99.90
21508;DHT22;10915;54.352;9.074;2024-01-10T19:24:20;0.40;99.90
21508;DHT22;10915;54.352;9.074;2024-01-10T19:26:47;0.50;99.90
21508;DHT22;10915;54.352;9.074;2024-01-10T19:29:15;0.70;99.90
21508;DHT22;10915;54.352;9.074;2024-01-10T19:31:40;0.80;99.90
21508;DHT22;10915;54.352;9.074;2024-01-10T19:34:06;0.90;99.90
21508;DHT22;10915;54.352;9.074;2024-01-10T19:36:33;1.00;99.90
21508;DHT22;10915;54.352;9.074;2024-01-10T19:38:58;1.00;99.90
21508;DHT22;10915;54.352;9.074;2024-01-10T19:41:25;1.00;99.90
21508;DHT22;10915;54.352;9.074;2024-01-10T19:43:51;0.80;99.90
21508;DHT22;10915;54.352;9.074;2024-01-10T19:46:18;0.70;99.90
21508;DHT22;10915;54.352;9.074;2024-01-10T19:48:45;0.60;99.90
21508;DHT22;10915;54.352;9.074;2024-01-10T19:51:11;0.60;99.90
21508;DHT22;10915;54.352;9.074;2024-01-10T19:53:37;0.70;99.90
21508;DHT22;10915;54.352;9.074;2024-01-10T19:56:03;0.70;99.90
21508;DHT22;10915;54.352;9.074;2024-01-10T19:58:29;0.90;99.90
21508;DHT22;10915;54.352;9.074;2024-01-10T20:00:56;1.00;99.90
21508;DHT22;10915;54.352;9.074;2024-01-10T20:03:21;1.00;99.90
21508;DHT22;10915;54.352;9.074;2024-01-10T20:05:47;1.10;99.90
21508;DHT22;10915;54.352;9.074;2024-01-10T20:08:13;1.10;99.90
21508;DHT22;10915;54.352;9.074;2024-01-10T20:10:39;1.20;99.90
21508;DHT22;10915;54.352;9.074;2024-01-10T20:13:05;1.10;99.90
21508;DHT22;10915;54.352;9.074;2024-01-10T20:15:32;1.00;99.90
21508;DHT22;10915;54.352;9.074;2024-01-10T20:17:58;0.80;99.90
21508;DHT22;10915;54.352;9.074;2024-01-10T20:20:24;0.80;99.90
21508;DHT22;10915;54.352;9.074;2024-01-10T20:22:49;0.80;99.90
21508;DHT22;10915;54.352;9.074;2024-01-10T20:25:15;0.90;99.90
21508;DHT22;10915;54.352;9.074;2024-01-10T20:27:41;1.00;99.90
21508;DHT22;10915;54.352;9.074;2024-01-10T20:30:07;1.10;99.90
21508;DHT22;10915;54.352;9.074;2024-01-10T20:32:33;1.20;99.90
21508;DHT22;10915;54.352;9.074;2024-01-10T20:34:59;1.20;99.90
21508;DHT22;10915;54.352;9.074;2024-01-10T20:37:25;1.20;99.90
21508;DHT22;10915;54.352;9.074;2024-01-10T20:39:51;1.30;99.90
21508;DHT22;10915;54.352;9.074;2024-01-10T20:42:17;1.30;99.90
21508;DHT22;10915;54.352;9.074;2024-01-10T20:44:42;1.30;99.90
21508;DHT22;10915;54.352;9.074;2024-01-10T20:47:10;1.30;99.90
21508;DHT22;10915;54.352;9.074;2024-01-10T20:49:36;1.30;99.90
21508;DHT22;10915;54.352;9.074;2024-01-10T20:52:02;1.30;99.90
21508;DHT22;10915;54.352;9.074;2024-01-10T20:54:28;1.40;99.90
21508;DHT22;10915;54.352;9.074;2024-01-10T20:56:53;1.40;99.90
21508;DHT22;10915;54.352;9.074;2024-01-10T20:59:19;1.40;99.90
21508;DHT22;10915;54.352;9.074;2024-01-10T21:01:45;1.40;99.90
21508;DHT22;10915;54.352;9.074;2024-01-10T21:04:11;1.40;99.90
21508;DHT22;10915;54.352;9.074;2024-01-10T21:06:37;1.40;99.90
21508;DHT22;10915;54.352;9.074;2024-01-10T21:09:03;1.40;99.90
21508;DHT22;10915;54.352;9.074;2024-01-10T21:11:30;1.40;99.90
21508;DHT22;10915;54.352;9.074;2024-01-10T21:13:55;1.40;99.90
21508;DHT22;10915;54.352;9.074;2024-01-10T21:16:21;1.40;99.90
21508;DHT22;10915;54.352;9.074;2024-01-10T21:18:47;1.40;99.90
21508;DHT22;10915;54.352;9.074;2024-01-10T21:21:12;1.40;99.90
21508;DHT22;10915;54.352;9.074;2024-01-10T21:23:38;1.40;99.90
21508;DHT22;10915;54.352;9.074;2024-01-10T21:26:04;1.40;99.90
21508;DHT22;10915;54.352;9.074;2024-01-10T21:28:29;1.40;99.90
21508;DHT22;10915;54.352;9.074;2024-01-10T21:30:57;1.40;99.90
21508;DHT22;10915;54.352;9.074;2024-01-10T21:33:22;1.40;99.90
21508;DHT22;10915;54.352;9.074;2024-01-10T21:35:48;1.40;99.90
21508;DHT22;10915;54.352;9.074;2024-01-10T21:38:14;1.30;99.90
21508;DHT22;10915;54.352;9.074;2024-01-10T21:40:39;1.30;99.90
21508;DHT22;10915;54.352;9.074;2024-01-10T21:43:05;1.00;99.90
21508;DHT22;10915;54.352;9.074;2024-01-10T21:45:30;1.00;99.90
21508;DHT22;10915;54.352;9.074;2024-01-10T21:47:59;1.10;99.90
21508;DHT22;10915;54.352;9.074;2024-01-10T21:50:25;1.10;99.90
21508;DHT22;10915;54.352;9.074;2024-01-10T21:52:50;1.10;99.90
21508;DHT22;10915;54.352;9.074;2024-01-10T21:55:16;1.10;99.90
21508;DHT22;10915;54.352;9.074;2024-01-10T21:57:41;0.80;99.90
21508;DHT22;10915;54.352;9.074;2024-01-10T22:00:07;0.60;99.90
21508;DHT22;10915;54.352;9.074;2024-01-10T22:02:33;0.70;99.90
21508;DHT22;10915;54.352;9.074;2024-01-10T22:04:59;0.80;99.90
21508;DHT22;10915;54.352;9.074;2024-01-10T22:07:25;0.90;99.90
21508;DHT22;10915;54.352;9.074;2024-01-10T22:09:51;1.00;99.90
21508;DHT22;10915;54.352;9.074;2024-01-10T22:12:17;0.70;99.90
21508;DHT22;10915;54.352;9.074;2024-01-10T22:14:42;0.60;99.90
21508;DHT22;10915;54.352;9.074;2024-01-10T22:17:08;0.70;99.90
21508;DHT22;10915;54.352;9.074;2024-01-10T22:19:33;0.70;99.90
21508;DHT22;10915;54.352;9.074;2024-01-10T22:22:02;0.60;99.90
21508;DHT22;10915;54.352;9.074;2024-01-10T22:24:28;0.60;99.90
21508;DHT22;10915;54.352;9.074;2024-01-10T22:26:53;0.70;99.90
21508;DHT22;10915;54.352;9.074;2024-01-10T22:29:19;0.50;99.90
21508;DHT22;10915;54.352;9.074;2024-01-10T22:31:46;0.50;99.90
21508;DHT22;10915;54.352;9.074;2024-01-10T22:34:12;0.40;99.90
21508;DHT22;10915;54.352;9.074;2024-01-10T22:36:38;0.30;99.90
21508;DHT22;10915;54.352;9.074;2024-01-10T22:39:03;0.30;99.90
21508;DHT22;10915;54.352;9.074;2024-01-10T22:41:29;0.20;99.90
21508;DHT22;10915;54.352;9.074;2024-01-10T22:43:54;0.20;99.90
21508;DHT22;10915;54.352;9.074;2024-01-10T22:46:20;0.10;99.90
21508;DHT22;10915;54.352;9.074;2024-01-10T22:48:46;0.20;99.90
21508;DHT22;10915;54.352;9.074;2024-01-10T22:51:11;0.20;99.90
21508;DHT22;10915;54.352;9.074;2024-01-10T22:53:37;0.30;99.90
21508;DHT22;10915;54.352;9.074;2024-01-10T22:56:02;0.30;99.90
21508;DHT22;10915;54.352;9.074;2024-01-10T22:58:28;0.30;99.90
21508;DHT22;10915;54.352;9.074;2024-01-10T23:00:55;0.40;99.90
21508;DHT22;10915;54.352;9.074;2024-01-10T23:03:20;0.40;99.90
21508;DHT22;10915;54.352;9.074;2024-01-10T23:05:46;0.60;99.90
21508;DHT22;10915;54.352;9.074;2024-01-10T23:08:11;0.70;99.90
21508;DHT22;10915;54.352;9.074;2024-01-10T23:10:37;0.80;99.90
21508;DHT22;10915;54.352;9.074;2024-01-10T23:13:03;0.90;99.90
21508;DHT22;10915;54.352;9.074;2024-01-10T23:15:28;0.90;99.90
21508;DHT22;10915;54.352;9.074;2024-01-10T23:17:54;1.00;99.90
21508;DHT22;10915;54.352;9.074;2024-01-10T23:20:21;1.00;99.90
21508;DHT22;10915;54.352;9.074;2024-01-10T23:22:46;1.10;99.90
21508;DHT22;10915;54.352;9.074;2024-01-10T23:25:12;1.10;99.90